createdAt,value
2018-05-19T00:00:54.661Z,11.13
2018-05-19T00:03:23.314Z,10.93
2018-05-19T00:05:51.663Z,11.53
2018-05-19T00:08:20.009Z,12.00
2018-05-19T00:10:49.140Z,12.47
2018-05-19T00:13:17.481Z,11.60
2018-05-19T00:15:45.795Z,12.77
2018-05-19T00:18:14.157Z,10.93
2018-05-19T00:20:42.507Z,12.60
2018-05-19T00:23:11.622Z,12.97
2018-05-19T00:25:40.231Z,12.30
2018-05-19T00:28:08.535Z,13.00
2018-05-19T00:30:36.850Z,12.63
2018-05-19T00:33:05.977Z,13.33
2018-05-19T00:35:34.437Z,12.70
2018-05-19T00:38:03.770Z,12.10
2018-05-19T00:40:32.136Z,12.93
2018-05-19T00:43:00.481Z,12.63
2018-05-19T00:45:29.579Z,12.63
2018-05-19T00:47:58.471Z,12.20
2018-05-19T00:50:26.788Z,12.13
2018-05-19T00:52:55.122Z,12.23
2018-05-19T00:55:23.459Z,13.37
2018-05-19T00:57:51.778Z,13.50
2018-05-19T01:00:20.117Z,12.90
2018-05-19T01:02:48.492Z,14.70
2018-05-19T01:05:16.834Z,14.47
2018-05-19T01:07:45.912Z,14.93
2018-05-19T01:10:14.816Z,14.90
2018-05-19T01:12:43.129Z,13.90
2018-05-19T01:15:11.487Z,14.10
2018-05-19T01:17:39.850Z,15.40
2018-05-19T01:20:08.136Z,15.33
2018-05-19T01:22:36.471Z,15.37
2018-05-19T01:25:04.856Z,15.00
2018-05-19T01:27:33.168Z,15.80
2018-05-19T01:30:02.250Z,13.77
2018-05-19T01:32:30.947Z,14.63
2018-05-19T01:34:59.280Z,15.60
2018-05-19T01:37:27.591Z,15.60
2018-05-19T01:39:55.955Z,16.17
2018-05-19T01:42:24.297Z,14.40
2018-05-19T01:44:52.613Z,13.97
2018-05-19T01:47:20.978Z,13.57
2018-05-19T01:49:49.283Z,13.03
2018-05-19T01:52:17.579Z,13.50
2018-05-19T01:54:46.164Z,11.90
2018-05-19T01:57:15.252Z,13.30
2018-05-19T01:59:44.347Z,11.90
2018-05-19T02:02:13.466Z,11.77
2018-05-19T02:04:41.790Z,10.50
2018-05-19T02:07:10.095Z,11.47
2018-05-19T02:09:38.446Z,10.33
2018-05-19T02:12:06.779Z,11.60
2018-05-19T02:14:35.831Z,11.60
2018-05-19T02:17:04.298Z,11.50
2018-05-19T02:19:33.386Z,11.47
2018-05-19T02:22:01.721Z,11.57
2018-05-19T02:24:30.840Z,11.33
2018-05-19T02:26:59.182Z,11.17
2018-05-19T02:29:28.329Z,10.57
2018-05-19T02:31:56.739Z,11.43
2018-05-19T02:34:25.050Z,11.50
2018-05-19T02:36:53.375Z,11.63
2018-05-19T02:39:21.792Z,11.13
2018-05-19T02:41:50.099Z,10.60
2018-05-19T02:44:18.423Z,11.17
2018-05-19T02:46:46.786Z,11.10
2018-05-19T02:49:15.083Z,10.23
2018-05-19T02:51:43.403Z,10.23
2018-05-19T02:54:12.564Z,10.87
2018-05-19T02:56:40.892Z,11.50
2018-05-19T02:59:09.215Z,10.40
2018-05-19T03:01:37.961Z,11.10
2018-05-19T03:04:06.271Z,9.57
2018-05-19T03:06:34.606Z,11.43
2018-05-19T03:09:03.724Z,10.87
2018-05-19T03:11:32.066Z,10.07
2018-05-19T03:14:01.178Z,11.90
2018-05-19T03:16:29.539Z,10.20
2018-05-19T03:18:57.847Z,10.20
2018-05-19T03:21:26.169Z,12.43
2018-05-19T03:23:54.896Z,11.57
2018-05-19T03:26:23.974Z,12.07
2018-05-19T03:28:52.280Z,10.80
2018-05-19T03:31:20.638Z,9.90
2018-05-19T03:33:49.741Z,10.33
2018-05-19T03:36:18.057Z,11.10
2018-05-19T03:38:46.396Z,10.77
2018-05-19T03:41:14.711Z,10.93
2018-05-19T03:43:43.016Z,10.10
2018-05-19T03:46:12.104Z,10.33
2018-05-19T03:48:40.430Z,10.60
2018-05-19T03:51:09.527Z,12.10
2018-05-19T03:53:38.628Z,10.60
2018-05-19T03:56:08.297Z,11.37
2018-05-19T03:58:46.815Z,11.87
2018-05-19T04:01:32.931Z,11.50
2018-05-19T04:04:01.719Z,11.17
2018-05-19T04:06:30.017Z,11.57
2018-05-19T04:08:59.103Z,12.57
2018-05-19T04:11:27.446Z,11.37
2018-05-19T04:13:55.766Z,11.07
2018-05-19T04:16:24.855Z,11.17
2018-05-19T04:18:53.987Z,11.97
2018-05-19T04:21:22.307Z,11.97
2018-05-19T04:23:50.617Z,11.23
2018-05-19T04:26:19.141Z,11.10
2018-05-19T04:28:47.483Z,10.20
2018-05-19T04:31:16.558Z,11.33
2018-05-19T04:33:45.668Z,11.80
2018-05-19T04:36:14.775Z,11.87
2018-05-19T04:38:43.127Z,11.80
2018-05-19T04:41:11.492Z,12.73
2018-05-19T04:43:39.815Z,12.03
2018-05-19T04:46:08.917Z,11.13
2018-05-19T04:48:37.443Z,11.50
2018-05-19T04:51:05.803Z,10.73
2018-05-19T04:53:34.107Z,10.77
2018-05-19T04:56:02.452Z,11.30
2018-05-19T04:58:30.823Z,12.00
2018-05-19T05:00:59.144Z,11.27
2018-05-19T05:03:27.683Z,12.30
2018-05-19T05:05:56.038Z,12.03
2018-05-19T05:08:24.373Z,10.77
2018-05-19T05:10:53.188Z,11.70
2018-05-19T05:13:21.491Z,10.47
2018-05-19T05:15:49.804Z,11.10
2018-05-19T05:18:18.157Z,10.50
2018-05-19T05:20:46.497Z,10.47
2018-05-19T05:23:14.816Z,11.30
2018-05-19T05:25:43.191Z,10.90
2018-05-19T05:28:12.262Z,10.93
2018-05-19T05:30:41.343Z,11.20
2018-05-19T05:33:10.135Z,10.90
2018-05-19T05:35:38.442Z,9.93
2018-05-19T05:38:06.789Z,11.87
2018-05-19T05:40:35.124Z,11.40
2018-05-19T05:43:03.501Z,12.23
2018-05-19T05:45:31.822Z,11.40
2018-05-19T05:48:00.183Z,13.17
2018-05-19T05:50:28.500Z,12.03
2018-05-19T05:52:56.863Z,11.87
2018-05-19T05:55:25.302Z,13.60
2018-05-19T05:57:53.615Z,13.13
2018-05-19T06:00:21.945Z,11.93
2018-05-19T06:02:50.297Z,13.07
2018-05-19T06:05:19.395Z,13.40
2018-05-19T06:07:47.739Z,14.00
2018-05-19T06:10:16.123Z,14.47
2018-05-19T06:12:44.458Z,14.90
2018-05-19T06:15:12.807Z,14.57
2018-05-19T06:17:42.204Z,15.00
2018-05-19T06:20:10.555Z,14.23
2018-05-19T06:22:39.709Z,13.60
2018-05-19T06:25:08.843Z,13.63
2018-05-19T06:27:37.183Z,15.50
2018-05-19T06:30:05.522Z,13.63
2018-05-19T06:32:33.871Z,15.23
2018-05-19T06:35:02.211Z,13.17
2018-05-19T06:37:30.541Z,15.77
2018-05-19T06:39:59.105Z,14.83
2018-05-19T06:42:27.413Z,15.40
2018-05-19T06:44:55.761Z,14.80
2018-05-19T06:47:24.148Z,14.17
2018-05-19T06:49:52.476Z,15.23
2018-05-19T06:52:20.791Z,15.37
2018-05-19T06:54:49.132Z,15.83
2018-05-19T06:57:17.466Z,15.60
2018-05-19T06:59:45.820Z,14.80
2018-05-19T07:02:14.303Z,15.70
2018-05-19T07:04:42.636Z,16.87
2018-05-19T07:07:10.992Z,15.80
2018-05-19T07:09:39.375Z,18.73
2018-05-19T07:12:08.464Z,16.63
2018-05-19T07:14:36.774Z,16.47
2018-05-19T07:17:05.155Z,16.07
2018-05-19T07:19:33.532Z,17.90
2018-05-19T07:22:01.884Z,16.43
2018-05-19T07:24:30.803Z,15.60
2018-05-19T07:26:59.146Z,17.40
2018-05-19T07:29:27.479Z,16.43
2018-05-19T07:31:56.642Z,18.07
2018-05-19T07:34:25.000Z,16.40
2018-05-19T07:36:53.421Z,16.00
2018-05-19T07:39:21.782Z,18.30
2018-05-19T07:41:50.136Z,16.70
2018-05-19T07:44:18.481Z,17.40
2018-05-19T07:46:47.359Z,16.13
2018-05-19T07:49:15.675Z,17.67
2018-05-19T07:51:43.995Z,16.30
2018-05-19T07:54:12.377Z,17.17
2018-05-19T07:56:40.723Z,17.23
2018-05-19T07:59:09.078Z,17.77
2018-05-19T08:01:41.874Z,17.03
2018-05-19T08:04:13.593Z,16.90
2018-05-19T08:06:42.566Z,16.67
2018-05-19T08:09:10.887Z,16.33
2018-05-19T08:11:39.961Z,16.20
2018-05-19T08:14:08.337Z,18.00
2018-05-19T08:16:36.677Z,16.80
2018-05-19T08:19:05.088Z,16.97
2018-05-19T08:21:33.444Z,16.67
2018-05-19T08:24:01.815Z,16.67
2018-05-19T08:26:30.342Z,16.53
2018-05-19T08:28:58.853Z,17.83
2018-05-19T08:31:27.190Z,15.17
2018-05-19T08:33:55.544Z,16.10
2018-05-19T08:36:23.926Z,16.10
2018-05-19T08:38:52.287Z,17.23
2018-05-19T08:41:20.588Z,17.30
2018-05-19T08:43:48.948Z,16.40
2018-05-19T08:46:17.290Z,16.47
2018-05-19T08:48:45.608Z,16.47
2018-05-19T08:51:14.839Z,16.67
2018-05-19T08:53:43.154Z,19.00
2018-05-19T08:56:11.683Z,15.73
2018-05-19T08:58:40.156Z,16.03
2018-05-19T09:01:08.477Z,15.87
2018-05-19T09:03:37.583Z,16.00
2018-05-19T09:06:06.724Z,15.33
2018-05-19T09:08:35.781Z,16.27
2018-05-19T09:11:04.543Z,15.80
2018-05-19T09:13:33.069Z,15.00
2018-05-19T09:16:01.439Z,15.73
2018-05-19T09:18:29.765Z,16.30
2018-05-19T09:21:10.726Z,15.83
2018-05-19T09:23:44.815Z,14.30
2018-05-19T09:26:13.382Z,15.80
2018-05-19T09:28:42.702Z,17.27
2018-05-19T09:31:11.242Z,15.60
2018-05-19T09:33:40.617Z,17.63
2018-05-19T09:36:09.317Z,16.50
2018-05-19T09:38:37.671Z,15.90
2018-05-19T09:41:06.379Z,16.17
2018-05-19T09:43:34.803Z,16.10
2018-05-19T09:46:03.355Z,15.37
2018-05-19T09:48:31.830Z,15.73
2018-05-19T09:51:00.204Z,15.90
2018-05-19T09:53:28.647Z,16.93
2018-05-19T09:55:57.527Z,13.97
2018-05-19T09:58:26.073Z,15.60
2018-05-19T10:00:55.032Z,15.20
2018-05-19T10:03:23.424Z,14.00
2018-05-19T10:05:51.929Z,15.43
2018-05-19T10:08:20.724Z,16.47
2018-05-19T10:10:49.391Z,15.47
2018-05-19T10:13:17.788Z,15.53
2018-05-19T10:15:46.986Z,15.67
2018-05-19T10:18:16.468Z,15.03
2018-05-19T10:20:44.812Z,16.23
2018-05-19T10:23:13.247Z,15.70
2018-05-19T10:25:41.531Z,16.50
2018-05-19T10:28:10.685Z,16.77
2018-05-19T10:30:38.992Z,16.13
2018-05-19T10:33:07.450Z,16.27
2018-05-19T10:35:35.876Z,16.00
2018-05-19T10:38:04.213Z,15.47
2018-05-19T10:40:33.344Z,15.00
2018-05-19T10:43:01.855Z,15.10
2018-05-19T10:45:30.418Z,14.50
2018-05-19T10:47:59.001Z,14.73
2018-05-19T10:50:27.379Z,15.47
2018-05-19T10:52:55.856Z,16.13
2018-05-19T10:55:24.315Z,15.10
2018-05-19T10:57:52.730Z,15.70
2018-05-19T11:00:21.113Z,17.63
2018-05-19T11:02:49.596Z,16.40
2018-05-19T11:05:18.158Z,16.07
2018-05-19T11:07:46.715Z,16.43
2018-05-19T11:10:15.347Z,15.23
2018-05-19T11:12:43.900Z,15.80
2018-05-19T11:15:13.682Z,15.20
2018-05-19T11:17:42.087Z,15.23
2018-05-19T11:20:10.597Z,15.63
2018-05-19T11:22:39.063Z,15.20
2018-05-19T11:25:08.454Z,15.83
2018-05-19T11:27:37.579Z,15.20
2018-05-19T11:30:05.897Z,15.13
2018-05-19T11:32:34.255Z,15.17
2018-05-19T11:35:02.578Z,14.73
2018-05-19T11:37:30.907Z,15.40
2018-05-19T11:39:59.324Z,15.20
2018-05-19T11:42:27.671Z,18.93
2018-05-19T11:44:56.065Z,18.33
2018-05-19T11:47:24.571Z,16.60
2018-05-19T11:49:53.675Z,15.53
2018-05-19T11:52:22.049Z,17.23
2018-05-19T11:54:50.445Z,17.83
2018-05-19T11:57:18.827Z,17.07
2018-05-19T11:59:47.155Z,14.87
2018-05-19T12:02:15.499Z,16.77
2018-05-19T12:04:43.870Z,16.93
2018-05-19T12:07:12.282Z,17.80
2018-05-19T12:09:40.896Z,17.27
2018-05-19T12:12:09.337Z,16.93
2018-05-19T12:14:37.702Z,15.43
2018-05-19T12:17:06.851Z,16.10
2018-05-19T12:19:35.164Z,15.67
2018-05-19T12:22:03.521Z,14.70
2018-05-19T12:24:32.677Z,15.70
2018-05-19T12:27:01.023Z,16.30
2018-05-19T12:29:29.376Z,15.90
2018-05-19T12:31:57.949Z,15.70
2018-05-19T12:34:26.339Z,16.87
2018-05-19T12:36:54.699Z,15.70
2018-05-19T12:39:23.057Z,15.90
2018-05-19T12:41:51.479Z,16.47
2018-05-19T12:44:19.812Z,15.07
2018-05-19T12:46:48.969Z,15.77
2018-05-19T12:49:18.079Z,15.57
2018-05-19T12:51:46.414Z,16.30
2018-05-19T12:54:14.851Z,14.90
2018-05-19T12:56:43.189Z,16.27
2018-05-19T12:59:11.531Z,14.93
2018-05-19T13:01:39.942Z,15.83
2018-05-19T13:04:08.255Z,16.43
2018-05-19T13:06:36.578Z,15.67
2018-05-19T13:09:04.941Z,16.60
2018-05-19T13:11:33.281Z,16.47
2018-05-19T13:14:01.625Z,14.67
2018-05-19T13:16:30.463Z,15.70
2018-05-19T13:18:58.808Z,16.50
2018-05-19T13:21:27.165Z,15.53
2018-05-19T13:23:55.535Z,13.43
2018-05-19T13:26:23.849Z,13.87
2018-05-19T13:28:52.188Z,15.17
2018-05-19T13:31:20.598Z,14.77
2018-05-19T13:33:49.154Z,13.80
2018-05-19T13:36:18.485Z,14.10
2018-05-19T13:38:47.237Z,14.67
2018-05-19T13:41:15.565Z,14.37
2018-05-19T13:43:44.677Z,15.13
2018-05-19T13:46:13.067Z,13.60
2018-05-19T13:48:41.401Z,14.17
2018-05-19T13:51:09.746Z,13.77
2018-05-19T13:53:38.118Z,13.37
2018-05-19T13:56:08.005Z,15.60
2018-05-19T13:58:36.321Z,13.07
2018-05-19T14:01:04.968Z,13.40
2018-05-19T14:03:34.060Z,11.93
2018-05-19T14:06:02.377Z,12.57
2018-05-19T14:08:30.766Z,14.60
2018-05-19T14:10:59.071Z,12.73
2018-05-19T14:13:27.399Z,12.37
2018-05-19T14:15:55.784Z,12.70
2018-05-19T14:18:24.136Z,11.30
2018-05-19T14:20:52.474Z,12.10
2018-05-19T14:23:21.299Z,12.13
2018-05-19T14:25:50.376Z,11.47
2018-05-19T14:28:18.691Z,12.03
2018-05-19T14:30:47.020Z,12.93
2018-05-19T14:33:15.340Z,12.43
2018-05-19T14:35:44.593Z,13.00
2018-05-19T14:38:12.945Z,11.97
2018-05-19T14:40:41.271Z,10.87
2018-05-19T14:43:12.218Z,11.00
2018-05-19T14:45:40.680Z,11.87
2018-05-19T14:48:09.823Z,12.00
2018-05-19T14:50:38.326Z,11.47
2018-05-19T14:53:06.720Z,10.50
2018-05-19T14:55:35.194Z,11.83
2018-05-19T14:58:03.621Z,11.27
2018-05-19T15:00:32.737Z,12.07
2018-05-19T15:03:02.010Z,12.03
2018-05-19T15:05:31.121Z,12.23
2018-05-19T15:07:59.811Z,11.67
2018-05-19T15:10:28.934Z,10.93
2018-05-19T15:12:57.367Z,10.40
2018-05-19T15:15:25.716Z,10.63
2018-05-19T15:17:54.135Z,11.20
2018-05-19T15:20:22.505Z,10.90
2018-05-19T15:22:50.929Z,11.70
2018-05-19T15:25:19.273Z,11.53
2018-05-19T15:27:47.655Z,11.83
2018-05-19T15:30:16.103Z,10.97
2018-05-19T15:32:44.542Z,9.63
2018-05-19T15:35:12.916Z,9.97
2018-05-19T15:37:42.100Z,11.33
2018-05-19T15:40:10.602Z,10.80
2018-05-19T15:42:39.011Z,9.80
2018-05-19T15:45:07.393Z,10.57
2018-05-19T15:47:35.819Z,10.00
2018-05-19T15:50:04.183Z,10.00
2018-05-19T15:52:32.767Z,10.07
2018-05-19T15:55:01.143Z,9.90
2018-05-19T15:57:29.527Z,10.50
2018-05-19T15:59:58.008Z,10.20
2018-05-19T16:02:26.419Z,10.07
2018-05-19T16:04:54.808Z,10.20
2018-05-19T16:07:23.215Z,10.10
2018-05-19T16:09:51.592Z,9.90
2018-05-19T16:12:19.940Z,10.10
2018-05-19T16:14:49.511Z,9.90
2018-05-19T16:17:17.857Z,10.63
2018-05-19T16:19:46.270Z,9.23
2018-05-19T16:22:14.658Z,10.77
2018-05-19T16:24:43.132Z,9.67
2018-05-19T16:27:11.622Z,10.13
2018-05-19T16:29:40.002Z,10.30
2018-05-19T16:32:08.477Z,9.30
2018-05-19T16:34:36.861Z,9.23
2018-05-19T16:37:05.440Z,10.93
2018-05-19T16:39:33.742Z,11.03
2018-05-19T16:42:02.922Z,9.47
2018-05-19T16:44:31.293Z,10.17
2018-05-19T16:46:59.673Z,9.20
2018-05-19T16:49:28.056Z,9.03
2018-05-19T16:51:56.591Z,8.33
2018-05-19T16:54:24.962Z,8.83
2018-05-19T16:56:53.310Z,8.83
2018-05-19T16:59:21.804Z,9.17
2018-05-19T17:01:50.177Z,9.83
2018-05-19T17:04:19.330Z,9.80
2018-05-19T17:06:47.745Z,9.63
2018-05-19T17:09:16.103Z,9.40
2018-05-19T17:11:44.428Z,10.00
2018-05-19T17:14:12.891Z,8.50
2018-05-19T17:16:41.288Z,8.07
2018-05-19T17:19:09.630Z,9.57
2018-05-19T17:21:38.373Z,9.73
2018-05-19T17:24:06.801Z,9.83
2018-05-19T17:26:35.172Z,8.43
2018-05-19T17:29:03.556Z,9.00
2018-05-19T17:31:31.986Z,8.87
2018-05-19T17:34:00.337Z,9.27
2018-05-19T17:36:29.458Z,8.13
2018-05-19T17:38:57.822Z,8.33
2018-05-19T17:41:26.276Z,9.03
2018-05-19T17:43:54.865Z,10.20
2018-05-19T17:46:23.311Z,9.20
2018-05-19T17:48:51.809Z,9.33
2018-05-19T17:51:20.203Z,11.37
2018-05-19T17:53:48.579Z,9.80
2018-05-19T17:56:16.942Z,10.50
2018-05-19T17:58:45.343Z,11.10
2018-05-19T18:01:13.649Z,10.97
2018-05-19T18:03:41.981Z,10.80
2018-05-19T18:06:10.661Z,10.40
2018-05-19T18:08:38.995Z,9.87
2018-05-19T18:11:07.327Z,10.10
2018-05-19T18:13:35.724Z,9.40
2018-05-19T18:16:04.046Z,8.67
2018-05-19T18:18:32.360Z,9.43
2018-05-19T18:21:00.732Z,8.67
2018-05-19T18:23:29.058Z,8.60
2018-05-19T18:25:58.161Z,9.70
2018-05-19T18:28:26.741Z,10.17
2018-05-19T18:30:55.062Z,10.60
2018-05-19T18:33:23.423Z,10.20
2018-05-19T18:35:52.030Z,9.83
2018-05-19T18:38:20.379Z,9.90
2018-05-19T18:40:48.731Z,11.20
2018-05-19T18:43:17.127Z,9.70
2018-05-19T18:45:45.453Z,9.40
2018-05-19T18:48:13.785Z,9.07
2018-05-19T18:50:42.293Z,9.83
2018-05-19T18:53:10.638Z,10.87
2018-05-19T18:55:39.726Z,10.23
2018-05-19T18:58:08.847Z,10.00
2018-05-19T19:00:37.174Z,11.43
2018-05-19T19:03:05.524Z,10.03
2018-05-19T19:05:33.933Z,10.27
2018-05-19T19:08:02.269Z,9.33
2018-05-19T19:10:30.616Z,10.73
2018-05-19T19:12:59.921Z,11.03
2018-05-19T19:15:29.025Z,10.00
2018-05-19T19:17:57.377Z,10.33
2018-05-19T19:20:25.734Z,11.10
2018-05-19T19:22:54.081Z,9.20
2018-05-19T19:25:22.428Z,9.60
2018-05-19T19:27:51.672Z,10.80
2018-05-19T19:30:20.024Z,10.60
2018-05-19T19:32:48.431Z,11.00
2018-05-19T19:35:16.857Z,10.33
2018-05-19T19:37:45.960Z,10.43
2018-05-19T19:40:15.056Z,10.77
2018-05-19T19:42:44.258Z,10.50
2018-05-19T19:45:12.565Z,11.00
2018-05-19T19:47:40.940Z,11.00
2018-05-19T19:50:09.512Z,10.43
2018-05-19T19:52:37.797Z,11.00
2018-05-19T19:55:06.213Z,10.43
2018-05-19T19:57:34.691Z,10.83
2018-05-19T20:00:03.081Z,11.90
2018-05-19T20:02:31.412Z,12.37
2018-05-19T20:04:59.766Z,13.13
2018-05-19T20:07:28.851Z,11.47
2018-05-19T20:09:57.208Z,13.13
2018-05-19T20:12:25.592Z,13.20
2018-05-19T20:14:53.968Z,13.90
2018-05-19T20:17:22.312Z,15.10
2018-05-19T20:19:50.800Z,16.47
2018-05-19T20:22:19.116Z,16.67
2018-05-19T20:24:47.438Z,15.90
2018-05-19T20:27:15.833Z,15.97
2018-05-19T20:29:44.147Z,14.90
2018-05-19T20:32:12.523Z,15.97
2018-05-19T20:34:40.880Z,14.57
2018-05-19T20:37:09.211Z,14.80
2018-05-19T20:39:38.337Z,14.67
2018-05-19T20:42:06.841Z,14.70
2018-05-19T20:44:35.238Z,14.50
2018-05-19T20:47:03.571Z,15.90
2018-05-19T20:49:31.967Z,14.37
2018-05-19T20:52:00.309Z,16.17
2018-05-19T20:54:28.678Z,14.63
2018-05-19T20:56:57.782Z,15.97
2018-05-19T20:59:26.877Z,15.13
2018-05-19T21:01:55.963Z,15.53
2018-05-19T21:04:24.414Z,15.70
2018-05-19T21:06:53.574Z,18.90
2018-05-19T21:09:21.891Z,14.63
2018-05-19T21:11:50.274Z,14.50
2018-05-19T21:14:18.675Z,14.97
2018-05-19T21:16:47.047Z,15.27
2018-05-19T21:19:15.427Z,16.20
2018-05-19T21:21:43.790Z,16.40
2018-05-19T21:24:12.135Z,16.57
2018-05-19T21:26:40.615Z,16.23
2018-05-19T21:29:08.985Z,16.60
2018-05-19T21:31:37.357Z,16.80
2018-05-19T21:34:06.504Z,15.83
2018-05-19T21:36:34.889Z,16.73
2018-05-19T21:39:03.211Z,16.80
2018-05-19T21:41:32.308Z,16.90
2018-05-19T21:44:01.406Z,15.70
2018-05-19T21:46:29.796Z,16.50
2018-05-19T21:48:58.212Z,18.70
2018-05-19T21:51:26.542Z,16.73
2018-05-19T21:53:54.896Z,18.23
2018-05-19T21:56:24.055Z,18.17
2018-05-19T21:58:52.394Z,17.57
2018-05-19T22:01:20.794Z,16.43
2018-05-19T22:03:49.168Z,17.67
2018-05-19T22:06:17.495Z,18.23
2018-05-19T22:08:45.843Z,16.93
2018-05-19T22:11:14.466Z,20.33
2018-05-19T22:13:42.798Z,25.43
2018-05-19T22:16:11.130Z,20.57
2018-05-19T22:18:39.488Z,20.13
2018-05-19T22:21:07.821Z,17.10
2018-05-19T22:23:36.218Z,18.07
2018-05-19T22:26:04.513Z,19.20
2018-05-19T22:28:33.623Z,17.20
2018-05-19T22:31:01.980Z,16.17
2018-05-19T22:33:30.441Z,16.47
2018-05-19T22:35:58.807Z,14.10
2018-05-19T22:38:27.900Z,13.63
2018-05-19T22:40:56.263Z,12.50
2018-05-19T22:43:25.405Z,13.70
2018-05-19T22:45:53.722Z,14.33
2018-05-19T22:48:22.088Z,12.53
2018-05-19T22:50:50.466Z,10.37
2018-05-19T22:53:18.805Z,11.20
2018-05-19T22:55:47.221Z,10.20
2018-05-19T22:58:15.589Z,10.13
2018-05-19T23:00:43.920Z,9.80
2018-05-19T23:03:13.052Z,9.20
2018-05-19T23:05:41.433Z,8.23
2018-05-19T23:08:09.765Z,7.93
2018-05-19T23:10:38.337Z,7.93
2018-05-19T23:13:06.651Z,7.10
2018-05-19T23:15:35.732Z,8.10
2018-05-19T23:18:04.418Z,6.87
2018-05-19T23:20:33.508Z,7.50
2018-05-19T23:23:02.607Z,7.40
2018-05-19T23:25:30.990Z,7.30
2018-05-19T23:28:00.130Z,6.63
2018-05-19T23:30:28.463Z,6.70
2018-05-19T23:32:56.824Z,6.37
2018-05-19T23:35:25.128Z,6.57
2018-05-19T23:37:54.240Z,6.47
2018-05-19T23:40:22.653Z,6.43
2018-05-19T23:42:51.753Z,5.70
2018-05-19T23:45:20.139Z,6.30
2018-05-19T23:47:49.391Z,6.60
2018-05-19T23:50:17.743Z,6.20
2018-05-19T23:52:46.130Z,5.53
2018-05-19T23:55:15.259Z,5.73
2018-05-19T23:57:43.586Z,5.47
